Time;durP1;ratioP1;P1;durP2;ratioP2;P2;SDS_P1;SDS_P2;PMS_P1;PMS_P2;Temp;Humidity;BMP_temperature;BMP_pressure;BME280_temperature;BME280_humidity;BME280_pressure;Samples;Min_cycle;Max_cycle;Signal;HPM_P1;HPM_P2
2024/02/14 00:01:16;;;;;;;3.50;2.78;;;9.10;96.30;;;;;;5038291;28;20432;-66
2024/02/14 00:03:42;;;;;;;4.53;3.22;;;9.10;96.70;;;;;;5037740;28;20183;-66
2024/02/14 00:06:08;;;;;;;3.00;2.40;;;9.10;97.10;;;;;;5037095;28;20036;-66
2024/02/14 00:08:33;;;;;;;2.80;2.13;;;9.10;97.10;;;;;;5036743;28;20021;-66
2024/02/14 00:11:00;;;;;;;4.35;2.40;;;9.10;97.10;;;;;;5037392;28;20029;-67
2024/02/14 00:13:25;;;;;;;3.58;2.35;;;9.10;97.30;;;;;;5034502;28;20023;-66
2024/02/14 00:15:51;;;;;;;3.83;3.22;;;9.10;97.40;;;;;;5038279;28;20037;-66
2024/02/14 00:18:17;;;;;;;4.68;2.95;;;9.10;97.60;;;;;;5043080;28;20033;-65
2024/02/14 00:20:42;;;;;;;3.25;2.38;;;9.10;97.90;;;;;;5040067;28;20029;-66
2024/02/14 00:23:08;;;;;;;3.28;2.47;;;9.10;98.10;;;;;;5040384;28;20499;-67
2024/02/14 00:25:33;;;;;;;4.85;3.20;;;9.10;98.20;;;;;;5044040;28;20039;-65
2024/02/14 00:28:01;;;;;;;4.00;2.83;;;9.10;98.50;;;;;;5040160;28;20029;-65
2024/02/14 00:30:27;;;;;;;4.15;2.63;;;9.10;98.70;;;;;;5040533;28;20115;-65
2024/02/14 00:32:52;;;;;;;4.68;2.80;;;9.10;98.80;;;;;;5048876;28;20199;-67
2024/02/14 00:35:18;;;;;;;2.42;1.90;;;9.10;98.90;;;;;;5040936;28;20025;-66
2024/02/14 00:37:43;;;;;;;3.25;2.58;;;9.20;98.90;;;;;;5038694;28;20183;-68
2024/02/14 00:40:10;;;;;;;3.90;2.80;;;9.20;98.90;;;;;;5041810;28;20033;-66
2024/02/14 00:42:36;;;;;;;3.30;2.78;;;9.10;99.00;;;;;;5041512;28;20135;-66
2024/02/14 00:45:02;;;;;;;3.67;2.88;;;9.20;99.20;;;;;;5040002;28;20383;-68
2024/02/14 00:47:28;;;;;;;4.57;2.40;;;9.20;99.30;;;;;;5038900;28;20052;-67
2024/02/14 00:49:54;;;;;;;4.13;2.53;;;9.20;99.40;;;;;;5040351;28;20057;-67
2024/02/14 00:52:21;;;;;;;3.63;2.70;;;9.20;99.60;;;;;;5039215;28;20025;-67
2024/02/14 00:54:47;;;;;;;3.17;2.88;;;9.20;99.70;;;;;;5039702;28;20387;-68
2024/02/14 00:57:12;;;;;;;3.97;2.80;;;9.20;99.80;;;;;;5038333;28;20045;-67
2024/02/14 00:59:38;;;;;;;2.67;2.10;;;9.30;99.90;;;;;;5039873;28;20059;-67
2024/02/14 01:02:04;;;;;;;3.35;2.78;;;9.30;99.90;;;;;;5040532;28;20021;-68
2024/02/14 01:04:30;;;;;;;4.05;3.05;;;9.20;99.90;;;;;;5040468;28;20033;-66
2024/02/14 01:06:55;;;;;;;3.97;3.13;;;9.30;99.90;;;;;;5039234;28;20033;-67
2024/02/14 01:09:21;;;;;;;4.35;3.17;;;9.30;99.90;;;;;;5044782;28;20021;-67
2024/02/14 01:11:48;;;;;;;3.42;2.47;;;9.30;99.90;;;;;;5039756;28;20025;-64
2024/02/14 01:14:14;;;;;;;2.22;2.03;;;9.30;99.90;;;;;;5039705;28;20115;-66
2024/02/14 01:16:46;;;;;;;3.00;2.42;;;9.40;99.90;;;;;;5038430;28;20096;-66
2024/02/14 01:19:11;;;;;;;4.78;3.28;;;9.40;99.90;;;;;;5043527;28;20044;-69
2024/02/14 01:21:37;;;;;;;4.43;3.30;;;9.40;99.90;;;;;;5039017;28;20394;-67
2024/02/14 01:24:05;;;;;;;3.20;2.50;;;9.40;99.90;;;;;;5039298;28;20505;-66
2024/02/14 01:26:31;;;;;;;5.45;3.78;;;9.40;99.90;;;;;;5038782;28;20026;-65
2024/02/14 01:28:56;;;;;;;5.15;2.97;;;9.40;99.90;;;;;;5042825;28;20025;-67
2024/02/14 01:31:22;;;;;;;4.07;3.10;;;9.40;99.90;;;;;;5040825;28;20034;-67
2024/02/14 01:33:47;;;;;;;4.10;3.10;;;9.50;99.90;;;;;;5038783;28;20029;-68
2024/02/14 01:36:13;;;;;;;4.47;3.13;;;9.50;99.90;;;;;;5037814;28;20021;-68
2024/02/14 01:38:39;;;;;;;4.38;3.08;;;9.50;99.90;;;;;;5038080;28;20837;-68
2024/02/14 01:41:05;;;;;;;4.63;3.50;;;9.60;99.90;;;;;;5038608;28;20063;-68
2024/02/14 01:43:31;;;;;;;4.38;3.00;;;9.60;99.90;;;;;;5040520;28;20025;-69
2024/02/14 01:46:05;;;;;;;4.28;3.00;;;9.60;99.90;;;;;;5035906;28;20483;-68
2024/02/14 01:48:31;;;;;;;5.15;3.60;;;9.60;99.90;;;;;;5037327;28;20040;-69
2024/02/14 01:50:57;;;;;;;4.60;2.83;;;9.60;99.90;;;;;;5039445;28;20025;-68
2024/02/14 01:53:25;;;;;;;4.75;3.40;;;9.70;99.90;;;;;;5036588;28;20040;-67
2024/02/14 01:55:51;;;;;;;5.47;3.65;;;9.70;99.90;;;;;;5037322;28;20094;-71
2024/02/14 01:58:17;;;;;;;3.50;2.75;;;9.70;99.90;;;;;;5038670;28;20032;-68
2024/02/14 02:00:43;;;;;;;4.20;2.40;;;9.70;99.90;;;;;;5039258;28;20025;-69
2024/02/14 02:03:10;;;;;;;3.45;2.20;;;9.70;99.90;;;;;;5037232;28;20021;-67
2024/02/14 02:05:36;;;;;;;2.40;2.00;;;9.80;99.90;;;;;;5038509;28;20044;-71
2024/02/14 02:08:02;;;;;;;5.03;3.50;;;9.80;99.90;;;;;;5037623;28;21237;-67
2024/02/14 02:10:28;;;;;;;4.82;2.92;;;9.80;99.90;;;;;;5038646;28;20033;-67
2024/02/14 02:13:00;;;;;;;6.05;4.00;;;9.80;99.90;;;;;;5037873;28;20029;-68
2024/02/14 02:15:28;;;;;;;;;;;9.80;99.90;;;;;;5037030;28;20025;-67
2024/02/14 02:17:54;;;;;;;5.95;3.60;;;9.80;99.90;;;;;;5035451;28;19925;-67
2024/02/14 02:20:20;;;;;;;5.93;3.17;;;9.80;99.90;;;;;;5040475;28;20029;-67
2024/02/14 02:22:47;;;;;;;6.38;3.08;;;9.90;99.90;;;;;;5035141;28;20511;-67
2024/02/14 02:25:13;;;;;;;4.00;2.67;;;9.90;99.90;;;;;;5040089;28;20060;-67
2024/02/14 02:27:39;;;;;;;4.90;2.80;;;9.90;99.90;;;;;;5039199;28;20028;-67
2024/02/14 02:30:06;;;;;;;4.75;3.35;;;10.00;99.90;;;;;;5038849;28;20029;-67
2024/02/14 02:32:32;;;;;;;4.15;2.72;;;10.00;99.90;;;;;;5039305;28;20031;-67
2024/02/14 02:34:58;;;;;;;3.30;2.22;;;10.00;99.90;;;;;;5038480;28;20033;-69
2024/02/14 02:37:24;;;;;;;4.15;2.75;;;10.00;99.90;;;;;;5040352;28;20021;-67
2024/02/14 02:39:51;;;;;;;3.90;2.53;;;10.00;99.90;;;;;;5037281;28;20035;-68
2024/02/14 02:42:17;;;;;;;4.25;2.70;;;10.10;99.90;;;;;;5038578;28;20116;-67
2024/02/14 02:44:47;;;;;;;3.80;2.72;;;10.10;99.90;;;;;;5037767;28;20440;-68
2024/02/14 02:47:12;;;;;;;4.38;2.80;;;10.10;99.90;;;;;;5038475;28;20033;-67
2024/02/14 02:49:38;;;;;;;3.70;2.28;;;10.10;99.90;;;;;;5035975;28;20070;-67
2024/02/14 02:52:04;;;;;;;2.50;2.05;;;10.10;99.90;;;;;;5038487;28;20029;-68
2024/02/14 02:54:29;;;;;;;3.85;2.30;;;10.10;99.90;;;;;;5037278;28;20099;-67
2024/02/14 02:56:55;;;;;;;5.70;3.00;;;10.10;99.90;;;;;;5036211;28;20067;-67
2024/02/14 02:59:21;;;;;;;4.10;2.67;;;10.10;99.90;;;;;;5037498;28;20033;-65
2024/02/14 03:01:49;;;;;;;3.55;2.75;;;10.10;99.90;;;;;;5040542;28;20022;-65
2024/02/14 03:04:15;;;;;;;4.28;3.10;;;10.10;99.90;;;;;;5038274;28;20491;-66
2024/02/14 03:06:43;;;;;;;6.22;3.90;;;10.10;99.90;;;;;;5037756;28;20029;-66
2024/02/14 03:09:09;;;;;;;4.15;2.58;;;10.10;99.90;;;;;;5042590;28;20087;-65
2024/02/14 03:11:35;;;;;;;2.42;2.05;;;10.10;99.90;;;;;;5039663;28;20052;-65
2024/02/14 03:14:01;;;;;;;2.85;2.40;;;10.20;99.90;;;;;;5037890;28;20021;-65
2024/02/14 03:16:27;;;;;;;3.45;2.55;;;10.20;99.90;;;;;;5035806;28;20248;-65
2024/02/14 03:18:54;;;;;;;5.32;3.63;;;10.20;99.90;;;;;;5038328;28;20117;-65
2024/02/14 03:21:20;;;;;;;5.38;3.22;;;10.20;99.90;;;;;;5038014;28;20120;-65
2024/02/14 03:23:45;;;;;;;4.70;3.53;;;10.20;99.90;;;;;;5037410;28;20112;-66
2024/02/14 03:26:11;;;;;;;4.90;3.60;;;10.20;99.90;;;;;;5037430;28;20488;-66
2024/02/14 03:28:36;;;;;;;6.97;3.65;;;10.20;99.90;;;;;;5039161;28;20017;-67
2024/02/14 03:31:02;;;;;;;5.25;3.30;;;10.20;99.90;;;;;;5039235;28;20022;-66
2024/02/14 03:33:29;;;;;;;5.15;3.53;;;10.20;99.90;;;;;;5035926;28;20531;-64
2024/02/14 03:35:54;;;;;;;2.53;2.03;;;10.20;99.90;;;;;;5036206;28;20112;-67
2024/02/14 03:38:27;;;;;;;3.70;2.95;;;10.20;99.90;;;;;;5038467;28;20124;-66
2024/02/14 03:40:53;;;;;;;2.72;2.30;;;10.20;99.90;;;;;;5035827;28;20312;-65
2024/02/14 03:43:19;;;;;;;2.67;2.10;;;10.20;99.90;;;;;;5037152;28;20078;-65
2024/02/14 03:45:46;;;;;;;4.10;3.10;;;10.30;99.90;;;;;;5037787;28;21005;-67
2024/02/14 03:48:12;;;;;;;5.00;3.00;;;10.30;99.90;;;;;;5037421;28;21265;-65
2024/02/14 03:50:40;;;;;;;3.55;2.72;;;10.30;99.90;;;;;;5040008;28;20103;-66
2024/02/14 03:53:06;;;;;;;2.95;2.35;;;10.30;99.90;;;;;;5041748;28;20048;-67
2024/02/14 03:55:31;;;;;;;4.47;2.70;;;10.30;99.90;;;;;;5040217;28;20431;-66
2024/02/14 03:57:57;;;;;;;5.20;3.30;;;10.30;99.90;;;;;;5041066;28;20052;-66
2024/02/14 04:00:22;;;;;;;4.55;3.00;;;10.40;99.90;;;;;;5043218;28;20032;-67
2024/02/14 04:02:49;;;;;;;5.80;3.10;;;10.40;99.90;;;;;;5042478;28;20075;-66
2024/02/14 04:05:14;;;;;;;6.13;3.47;;;10.40;99.90;;;;;;5041703;28;20028;-67
2024/02/14 04:07:40;;;;;;;5.00;3.20;;;10.40;99.90;;;;;;5038381;28;20017;-67
2024/02/14 04:10:06;;;;;;;4.47;3.17;;;10.40;99.90;;;;;;5041510;28;20029;-68
2024/02/14 04:12:32;;;;;;;6.55;4.10;;;10.50;99.90;;;;;;5039365;28;20029;-67
2024/02/14 04:14:58;;;;;;;4.03;3.00;;;10.50;99.90;;;;;;5042102;28;20048;-67
2024/02/14 04:17:24;;;;;;;6.30;3.80;;;10.50;99.90;;;;;;5040287;28;20103;-67
2024/02/14 04:19:50;;;;;;;4.35;2.90;;;10.50;99.90;;;;;;5045432;28;20091;-67
2024/02/14 04:22:15;;;;;;;5.18;3.20;;;10.50;99.90;;;;;;5040796;28;20029;-67
2024/02/14 04:24:41;;;;;;;4.03;3.13;;;10.50;99.90;;;;;;5041585;28;20124;-66
2024/02/14 04:27:07;;;;;;;6.75;4.53;;;10.60;99.90;;;;;;5042453;28;20026;-67
2024/02/14 04:29:33;;;;;;;7.88;5.07;;;10.50;99.90;;;;;;5039306;28;20082;-66
2024/02/14 04:31:59;;;;;;;6.88;4.60;;;10.50;99.90;;;;;;5042352;28;20053;-68
2024/02/14 04:34:25;;;;;;;5.15;3.83;;;10.50;99.90;;;;;;5040375;28;20556;-68
2024/02/14 04:36:51;;;;;;;5.30;3.63;;;10.60;99.90;;;;;;5040093;28;20032;-68
2024/02/14 04:39:17;;;;;;;4.38;3.08;;;10.60;99.90;;;;;;5041724;28;20029;-68
2024/02/14 04:41:43;;;;;;;4.13;3.03;;;10.60;99.90;;;;;;5041183;28;20029;-67
2024/02/14 04:44:08;;;;;;;6.65;3.53;;;10.70;99.90;;;;;;5041902;28;20025;-67
2024/02/14 04:46:43;;;;;;;4.40;2.97;;;10.70;99.90;;;;;;5040825;28;20013;-68
2024/02/14 04:49:09;;;;;;;3.10;2.65;;;10.70;99.90;;;;;;5038214;28;20025;-67
2024/02/14 04:51:35;;;;;;;6.15;3.78;;;10.70;99.90;;;;;;5040734;28;20025;-68
2024/02/14 04:54:00;;;;;;;4.97;3.80;;;10.70;99.90;;;;;;5040751;28;20051;-67
2024/02/14 04:56:27;;;;;;;5.18;3.53;;;10.70;99.90;;;;;;5042625;28;20160;-67
2024/02/14 04:58:53;;;;;;;4.47;3.10;;;10.70;99.90;;;;;;5041335;28;20032;-69
2024/02/14 05:01:19;;;;;;;4.65;3.15;;;10.70;99.90;;;;;;5043479;28;20032;-67
2024/02/14 05:03:44;;;;;;;5.05;3.60;;;10.70;99.90;;;;;;5047765;28;20029;-68
2024/02/14 05:06:10;;;;;;;4.63;3.35;;;10.70;99.90;;;;;;5040366;28;20546;-69
2024/02/14 05:08:35;;;;;;;7.68;6.10;;;10.80;99.90;;;;;;5036995;28;20118;-67
2024/02/14 05:11:01;;;;;;;6.85;4.25;;;10.80;99.90;;;;;;5042473;28;20052;-68
2024/02/14 05:13:26;;;;;;;5.05;3.47;;;10.70;99.90;;;;;;5038293;28;20092;-68
2024/02/14 05:15:52;;;;;;;5.90;3.45;;;10.80;99.90;;;;;;5040729;28;20025;-68
2024/02/14 05:18:17;;;;;;;4.47;3.40;;;10.80;99.90;;;;;;5038668;28;20036;-68
2024/02/14 05:20:43;;;;;;;4.22;3.20;;;10.80;99.90;;;;;;5035502;28;20376;-67
2024/02/14 05:23:10;;;;;;;5.90;3.78;;;10.80;99.90;;;;;;5041729;28;20048;-66
2024/02/14 05:25:36;;;;;;;4.80;3.28;;;10.80;99.90;;;;;;5038399;28;20032;-68
2024/02/14 05:28:02;;;;;;;3.60;2.85;;;10.80;99.90;;;;;;5039697;28;20025;-68
2024/02/14 05:30:27;;;;;;;4.20;2.72;;;10.80;99.90;;;;;;5034000;28;20056;-67
2024/02/14 05:32:53;;;;;;;4.18;3.10;;;10.80;99.90;;;;;;5040300;28;20025;-68
2024/02/14 05:35:19;;;;;;;9.73;5.43;;;10.80;99.90;;;;;;5039181;28;20025;-67
2024/02/14 05:37:49;;;;;;;9.30;5.20;;;10.80;99.90;;;;;;5037683;28;20036;-69
2024/02/14 05:40:15;;;;;;;5.47;3.80;;;10.80;99.90;;;;;;5039957;28;20044;-67
2024/02/14 05:42:40;;;;;;;5.47;3.60;;;10.80;99.90;;;;;;5040187;28;20063;-68
2024/02/14 05:45:09;;;;;;;5.55;3.60;;;10.80;99.90;;;;;;5039656;28;20044;-67
2024/02/14 05:47:35;;;;;;;5.50;3.63;;;10.90;99.90;;;;;;5039395;28;21811;-68
2024/02/14 05:50:00;;;;;;;6.07;4.25;;;10.90;99.90;;;;;;5038017;28;20017;-68
2024/02/14 05:52:26;;;;;;;4.80;3.63;;;10.90;99.90;;;;;;5038160;28;20200;-68
2024/02/14 05:54:52;;;;;;;6.10;4.60;;;10.90;99.90;;;;;;5040224;28;20083;-70
2024/02/14 05:57:17;;;;;;;5.78;3.88;;;10.80;99.90;;;;;;5038695;28;20431;-68
2024/02/14 05:59:43;;;;;;;3.67;2.90;;;10.90;99.90;;;;;;5039726;28;20543;-67
2024/02/14 06:02:09;;;;;;;4.65;3.40;;;10.90;99.90;;;;;;5037578;28;20418;-68
2024/02/14 06:04:35;;;;;;;4.15;3.05;;;10.90;99.90;;;;;;5037926;28;20039;-68
2024/02/14 06:07:01;;;;;;;8.07;4.40;;;10.90;99.90;;;;;;5038075;28;20527;-67
2024/02/14 06:09:27;;;;;;;5.38;4.20;;;10.90;99.90;;;;;;5035179;28;20036;-66
2024/02/14 06:11:52;;;;;;;5.85;2.97;;;10.90;99.90;;;;;;5038613;28;20127;-65
2024/02/14 06:14:18;;;;;;;6.35;4.70;;;10.90;99.90;;;;;;5036024;28;20115;-66
2024/02/14 06:16:44;;;;;;;8.00;6.03;;;10.90;99.90;;;;;;5039081;28;20021;-66
2024/02/14 06:19:10;;;;;;;7.13;5.20;;;10.90;99.90;;;;;;5042563;28;20403;-66
2024/02/14 06:21:36;;;;;;;5.22;4.13;;;10.90;99.90;;;;;;5039135;28;20068;-65
2024/02/14 06:24:03;;;;;;;5.85;3.92;;;10.90;99.90;;;;;;5039996;28;20684;-67
2024/02/14 06:26:30;;;;;;;5.55;4.07;;;10.90;99.90;;;;;;5038861;28;20392;-66
2024/02/14 06:28:55;;;;;;;5.70;4.72;;;10.90;99.90;;;;;;5036958;28;20028;-66
2024/02/14 06:31:22;;;;;;;4.53;3.60;;;10.90;99.90;;;;;;5036464;28;20070;-65
2024/02/14 06:33:48;;;;;;;4.57;3.35;;;10.90;99.90;;;;;;5038923;28;20029;-65
2024/02/14 06:36:13;;;;;;;6.65;4.50;;;10.90;99.90;;;;;;5036965;28;20032;-66
2024/02/14 06:38:39;;;;;;;7.55;5.32;;;10.90;99.90;;;;;;5039363;28;20029;-66
2024/02/14 06:41:05;;;;;;;5.03;3.88;;;10.90;99.90;;;;;;5039867;28;20033;-67
2024/02/14 06:43:31;;;;;;;5.80;4.18;;;10.90;99.90;;;;;;5038590;28;20483;-66
2024/02/14 06:45:57;;;;;;;4.93;4.18;;;10.90;99.90;;;;;;5037415;28;20040;-68
2024/02/14 06:48:23;;;;;;;4.28;3.38;;;10.90;99.90;;;;;;5040017;28;20048;-67
2024/02/14 06:50:50;;;;;;;4.63;3.70;;;11.00;99.90;;;;;;5036207;28;20017;-67
2024/02/14 06:53:15;;;;;;;4.15;3.40;;;11.00;99.90;;;;;;5041229;28;20025;-67
2024/02/14 06:55:41;;;;;;;3.70;2.78;;;11.00;99.90;;;;;;5039848;28;20021;-68
2024/02/14 06:58:06;;;;;;;4.60;3.70;;;11.00;99.90;;;;;;5038591;28;20032;-69
2024/02/14 07:00:33;;;;;;;4.35;3.53;;;11.00;99.90;;;;;;5040255;28;21017;-67
2024/02/14 07:02:58;;;;;;;5.47;4.60;;;11.00;99.90;;;;;;5039094;28;20025;-68
2024/02/14 07:05:24;;;;;;;4.68;3.83;;;11.00;99.90;;;;;;5040030;28;20037;-67
2024/02/14 07:07:50;;;;;;;4.05;3.15;;;11.00;99.90;;;;;;5043198;28;20495;-68
2024/02/14 07:10:16;;;;;;;4.47;3.20;;;11.00;99.90;;;;;;5045263;28;20036;-68
2024/02/14 07:12:41;;;;;;;3.78;2.92;;;11.00;99.90;;;;;;5045927;28;20107;-68
2024/02/14 07:15:08;;;;;;;4.38;3.13;;;11.00;99.90;;;;;;5047629;28;20025;-67
2024/02/14 07:17:33;;;;;;;2.85;2.35;;;11.00;99.90;;;;;;5045554;28;20043;-68
2024/02/14 07:19:59;;;;;;;3.40;2.72;;;11.00;99.90;;;;;;5046744;28;20024;-68
2024/02/14 07:22:25;;;;;;;3.72;2.65;;;11.00;99.90;;;;;;5043699;28;20099;-69
2024/02/14 07:24:50;;;;;;;4.82;3.80;;;11.00;99.90;;;;;;5038073;28;20076;-68
2024/02/14 07:27:18;;;;;;;3.97;3.15;;;11.00;99.90;;;;;;5040477;28;20044;-68
2024/02/14 07:29:44;;;;;;;4.57;3.03;;;11.00;99.90;;;;;;5052129;28;20395;-68
2024/02/14 07:32:10;;;;;;;4.22;3.25;;;11.10;99.90;;;;;;5051656;28;20013;-68
2024/02/14 07:34:39;;;;;;;4.40;3.55;;;11.10;99.90;;;;;;5050741;28;20021;-68
2024/02/14 07:37:05;;;;;;;3.85;3.20;;;11.10;99.90;;;;;;5051508;28;20040;-68
2024/02/14 07:39:30;;;;;;;4.57;3.50;;;11.10;99.90;;;;;;5047465;28;20052;-66
2024/02/14 07:41:57;;;;;;;3.92;2.90;;;11.20;99.90;;;;;;5049385;28;20029;-67
2024/02/14 07:44:22;;;;;;;7.93;5.15;;;11.20;99.90;;;;;;5051309;28;20025;-66
2024/02/14 07:46:49;;;;;;;5.78;3.85;;;11.10;99.90;;;;;;5048053;28;20021;-67
2024/02/14 07:49:14;;;;;;;4.45;3.38;;;11.20;99.90;;;;;;5046237;28;20055;-67
2024/02/14 07:51:41;;;;;;;4.50;3.17;;;11.20;99.90;;;;;;5042644;28;20029;-67
2024/02/14 07:54:06;;;;;;;5.82;3.80;;;11.20;99.90;;;;;;5048702;28;20021;-67
2024/02/14 07:56:32;;;;;;;5.45;3.45;;;11.20;99.90;;;;;;5051247;28;20093;-67
2024/02/14 07:58:58;;;;;;;7.05;4.53;;;11.20;99.90;;;;;;5045764;28;20041;-66
2024/02/14 08:01:24;;;;;;;5.68;4.13;;;11.20;99.90;;;;;;5050913;28;20025;-66
2024/02/14 08:03:49;;;;;;;6.75;4.63;;;11.30;99.90;;;;;;5049058;28;20036;-67
2024/02/14 08:06:15;;;;;;;5.78;4.50;;;11.30;99.90;;;;;;5054331;28;20472;-67
2024/02/14 08:08:40;;;;;;;5.97;4.10;;;11.30;99.90;;;;;;5051364;28;20028;-68
2024/02/14 08:11:06;;;;;;;8.77;5.05;;;11.30;99.90;;;;;;5050407;28;20687;-66
2024/02/14 08:13:32;;;;;;;6.25;4.57;;;11.30;99.90;;;;;;5050217;28;20021;-67
2024/02/14 08:15:58;;;;;;;6.10;4.75;;;11.30;99.90;;;;;;5051296;28;20028;-67
2024/02/14 08:18:24;;;;;;;7.38;4.30;;;11.30;99.90;;;;;;5046290;28;20356;-67
2024/02/14 08:20:52;;;;;;;5.40;3.90;;;11.30;99.90;;;;;;5042932;28;20036;-66
2024/02/14 08:23:18;;;;;;;4.57;3.50;;;11.30;99.90;;;;;;5048086;28;20047;-66
2024/02/14 08:25:43;;;;;;;6.70;4.45;;;11.30;99.90;;;;;;5047477;28;20373;-67
2024/02/14 08:28:09;;;;;;;8.07;5.93;;;11.30;99.90;;;;;;5046324;28;20652;-66
2024/02/14 08:30:35;;;;;;;5.93;4.25;;;11.30;99.90;;;;;;5045849;28;20017;-67
2024/02/14 08:33:01;;;;;;;6.22;4.55;;;11.30;99.90;;;;;;5048607;28;20585;-66
2024/02/14 08:35:26;;;;;;;5.55;4.20;;;11.30;99.90;;;;;;5055296;28;20043;-66
2024/02/14 08:37:52;;;;;;;4.00;2.97;;;11.40;99.90;;;;;;5045033;28;20068;-66
2024/02/14 08:40:17;;;;;;;3.58;2.90;;;11.40;99.90;;;;;;5048823;28;20036;-66
2024/02/14 08:42:43;;;;;;;4.20;3.10;;;11.40;99.90;;;;;;5048119;28;20071;-67
2024/02/14 08:45:10;;;;;;;5.25;3.63;;;11.40;99.90;;;;;;5051826;28;20395;-65
2024/02/14 08:47:36;;;;;;;5.25;3.63;;;11.40;99.90;;;;;;5047261;28;20479;-66
2024/02/14 08:50:03;;;;;;;5.28;3.33;;;11.40;99.90;;;;;;5049130;28;20455;-67
2024/02/14 08:52:29;;;;;;;5.07;3.92;;;11.40;99.90;;;;;;5046964;28;20542;-67
2024/02/14 08:54:54;;;;;;;4.45;3.10;;;11.40;99.90;;;;;;5045216;28;20021;-68
2024/02/14 08:57:20;;;;;;;5.07;3.28;;;11.40;99.90;;;;;;5046222;28;20033;-67
2024/02/14 08:59:47;;;;;;;3.45;2.80;;;11.40;99.90;;;;;;5046650;28;20029;-67
2024/02/14 09:02:13;;;;;;;5.05;3.55;;;11.40;99.90;;;;;;5048811;28;20025;-67
2024/02/14 09:04:41;;;;;;;4.68;3.40;;;11.40;99.90;;;;;;5046970;28;20097;-67
2024/02/14 09:07:07;;;;;;;5.32;3.65;;;11.40;99.90;;;;;;5046677;28;20129;-68
2024/02/14 09:09:33;;;;;;;5.85;3.60;;;11.40;99.90;;;;;;5046696;28;20195;-68
2024/02/14 09:12:02;;;;;;;5.00;2.80;;;11.40;99.90;;;;;;5047300;28;20473;-66
2024/02/14 09:14:28;;;;;;;6.20;4.15;;;11.50;99.90;;;;;;5046574;28;20024;-67
2024/02/14 09:16:54;;;;;;;5.85;4.40;;;11.50;99.90;;;;;;5009453;28;1098842;-66
2024/02/14 09:19:19;;;;;;;4.55;3.00;;;11.50;99.90;;;;;;5046911;28;20104;-67
2024/02/14 09:21:45;;;;;;;7.30;5.03;;;11.50;99.90;;;;;;5046029;28;20068;-67
2024/02/14 09:24:11;;;;;;;4.78;3.72;;;11.60;99.90;;;;;;5047408;28;20025;-68
2024/02/14 09:26:38;;;;;;;5.32;3.95;;;11.60;99.90;;;;;;5047707;28;20025;-67
2024/02/14 09:29:03;;;;;;;4.32;3.00;;;11.50;99.90;;;;;;5046433;28;20021;-67
2024/02/14 09:31:29;;;;;;;5.40;3.05;;;11.60;99.90;;;;;;5049431;28;20036;-67
2024/02/14 09:33:56;;;;;;;4.40;3.30;;;11.60;99.90;;;;;;5048001;28;20091;-67
2024/02/14 09:36:23;;;;;;;4.88;3.13;;;11.60;99.90;;;;;;5048367;28;20530;-67
2024/02/14 09:38:48;;;;;;;4.57;3.40;;;11.60;99.90;;;;;;5046324;28;20689;-66
2024/02/14 09:41:30;;;;;;;4.18;2.97;;;11.60;99.90;;;;;;5050431;28;20029;-66
2024/02/14 09:43:56;;;;;;;4.50;2.80;;;11.60;99.90;;;;;;5047491;28;20029;-66
2024/02/14 09:46:24;;;;;;;2.88;2.40;;;11.60;99.90;;;;;;5048638;28;20446;-66
2024/02/14 09:48:52;;;;;;;3.42;2.35;;;11.60;99.90;;;;;;5045267;28;20047;-66
2024/02/14 09:51:17;;;;;;;3.45;2.67;;;11.70;99.90;;;;;;5047703;28;20025;-67
2024/02/14 09:53:44;;;;;;;3.55;2.58;;;11.70;99.90;;;;;;5047118;28;20475;-66
2024/02/14 09:56:11;;;;;;;3.75;2.67;;;11.70;99.90;;;;;;5047258;28;20082;-66
2024/02/14 09:58:37;;;;;;;4.07;2.80;;;11.70;99.90;;;;;;5046861;28;20029;-66
2024/02/14 10:01:07;;;;;;;5.38;3.50;;;11.70;99.90;;;;;;5045356;28;20037;-66
2024/02/14 10:03:34;;;;;;;6.35;4.70;;;11.70;99.90;;;;;;5044542;28;20025;-65
2024/02/14 10:05:59;;;;;;;6.00;3.17;;;11.70;99.90;;;;;;5046040;28;20036;-66
2024/02/14 10:08:26;;;;;;;4.93;3.22;;;11.70;99.90;;;;;;5045258;28;20021;-66
2024/02/14 10:10:52;;;;;;;5.13;3.67;;;11.80;99.90;;;;;;5046343;28;20281;-67
2024/02/14 10:13:18;;;;;;;7.03;4.07;;;11.80;99.90;;;;;;5045282;28;20453;-67
2024/02/14 10:15:43;;;;;;;4.80;3.25;;;11.80;99.90;;;;;;5046995;28;20021;-67
2024/02/14 10:18:09;;;;;;;6.00;3.67;;;11.80;99.90;;;;;;5047094;28;20448;-68
2024/02/14 10:20:40;;;;;;;6.57;3.70;;;11.80;99.90;;;;;;5046879;28;20025;-68
2024/02/14 10:23:07;;;;;;;5.03;3.55;;;11.80;99.90;;;;;;5045800;28;20115;-67
2024/02/14 10:25:34;;;;;;;5.70;3.28;;;11.90;99.90;;;;;;5047536;28;20040;-67
2024/02/14 10:28:08;;;;;;;6.68;4.55;;;11.90;99.90;;;;;;5046788;28;20108;-67
2024/02/14 10:30:42;;;;;;;6.40;4.10;;;11.90;99.90;;;;;;5047498;28;20020;-67
2024/02/14 10:33:08;;;;;;;5.15;3.15;;;11.90;99.90;;;;;;5046491;28;20364;-67
2024/02/14 10:35:36;;;;;;;3.95;2.30;;;12.00;99.90;;;;;;5044472;28;20013;-67
2024/02/14 10:38:03;;;;;;;6.38;4.03;;;12.00;99.90;;;;;;5045947;28;20031;-67
2024/02/14 10:40:31;;;;;;;4.78;3.20;;;12.00;99.90;;;;;;5046866;28;20024;-66
2024/02/14 10:42:58;;;;;;;5.13;3.85;;;12.00;99.90;;;;;;5042841;28;20108;-67
2024/02/14 10:45:26;;;;;;;4.90;3.33;;;12.10;99.90;;;;;;5049412;28;20028;-66
2024/02/14 10:47:57;;;;;;;7.93;4.13;;;12.10;99.90;;;;;;5046171;28;20693;-67
2024/02/14 10:50:24;;;;;;;5.33;3.43;;;12.10;99.90;;;;;;5047474;28;20059;-67
2024/02/14 10:52:53;;;;;;;4.85;3.30;;;12.10;99.90;;;;;;5042933;28;20108;-67
2024/02/14 10:55:23;;;;;;;5.50;3.55;;;12.10;99.90;;;;;;5048593;28;20039;-66
2024/02/14 10:57:50;;;;;;;4.72;3.15;;;12.10;99.90;;;;;;5046505;28;20021;-66
2024/02/14 11:00:18;;;;;;;6.15;4.15;;;12.10;99.90;;;;;;5049462;28;20021;-67
2024/02/14 11:02:44;;;;;;;4.95;3.30;;;12.10;99.90;;;;;;5042062;28;20020;-67
2024/02/14 11:05:16;;;;;;;6.90;3.80;;;12.10;99.90;;;;;;5046203;28;20056;-66
2024/02/14 11:07:48;;;;;;;5.05;3.15;;;12.10;99.90;;;;;;5049861;28;20017;-67
2024/02/14 11:10:16;;;;;;;3.72;2.63;;;12.20;99.90;;;;;;5047296;28;20052;-67
2024/02/14 11:12:42;;;;;;;10.50;6.25;;;12.20;99.90;;;;;;5046278;28;20017;-67
2024/02/14 11:15:21;;;;;;;7.38;4.68;;;12.20;99.90;;;;;;5048380;28;20100;-67
2024/02/14 11:17:56;;;;;;;4.50;3.10;;;12.20;99.90;;;;;;5046349;28;20108;-67
2024/02/14 11:20:32;;;;;;;8.68;5.55;;;12.20;99.90;;;;;;5042441;28;20051;-67
2024/02/14 11:23:06;;;;;;;7.60;4.75;;;12.20;99.90;;;;;;5045750;28;20029;-67
2024/02/14 11:25:35;;;;;;;7.50;5.68;;;12.30;99.90;;;;;;5042298;28;20479;-66
2024/02/14 11:28:12;;;;;;;5.88;3.97;;;12.20;99.90;;;;;;5043359;28;20112;-66
2024/02/14 11:30:40;;;;;;;6.32;4.30;;;12.20;99.90;;;;;;5043159;28;20028;-66
2024/02/14 11:33:22;;;;;;;5.82;3.45;;;12.30;99.90;;;;;;5041952;28;20017;-67
2024/02/14 11:35:55;;;;;;;6.65;4.45;;;12.30;99.90;;;;;;5043962;28;20035;-67
2024/02/14 11:38:29;;;;;;;6.10;3.33;;;12.30;99.90;;;;;;5043871;28;20017;-67
2024/02/14 11:40:58;;;;;;;5.32;3.45;;;12.30;99.90;;;;;;5045194;28;20036;-66
2024/02/14 11:43:24;;;;;;;6.68;4.10;;;12.30;99.90;;;;;;5045884;28;20695;-66
2024/02/14 11:45:51;;;;;;;9.40;6.15;;;12.30;99.90;;;;;;5042619;28;20537;-67
2024/02/14 11:48:17;;;;;;;5.78;3.70;;;12.30;99.90;;;;;;5045112;28;20013;-67
2024/02/14 11:50:44;;;;;;;9.18;4.90;;;12.30;99.90;;;;;;5046322;28;20071;-68
2024/02/14 11:53:11;;;;;;;6.45;4.22;;;12.30;99.90;;;;;;5044801;28;20024;-67
2024/02/14 11:55:38;;;;;;;5.70;3.40;;;12.30;99.90;;;;;;5045362;28;20045;-67
2024/02/14 11:58:08;;;;;;;4.70;2.38;;;12.30;99.90;;;;;;5041786;28;20083;-66
2024/02/14 12:00:35;;;;;;;3.42;2.70;;;12.40;99.90;;;;;;5044647;28;20204;-67
2024/02/14 12:03:01;;;;;;;4.88;3.20;;;12.40;99.90;;;;;;5043031;28;20108;-67
2024/02/14 12:05:27;;;;;;;7.28;4.93;;;12.40;99.90;;;;;;5042857;28;20923;-67
2024/02/14 12:07:53;;;;;;;6.07;3.70;;;12.40;99.90;;;;;;5043612;28;20047;-67
2024/02/14 12:10:21;;;;;;;4.82;2.92;;;12.40;99.90;;;;;;5044486;28;20076;-66
2024/02/14 12:12:47;;;;;;;3.97;2.78;;;12.30;99.90;;;;;;5046843;28;20033;-67
2024/02/14 12:15:15;;;;;;;4.85;2.47;;;12.40;99.90;;;;;;5044707;28;20029;-67
2024/02/14 12:17:41;;;;;;;6.20;2.42;;;12.40;99.90;;;;;;5048449;28;20028;-68
2024/02/14 12:20:12;;;;;;;4.22;2.42;;;12.50;99.90;;;;;;5046766;28;20031;-67
2024/02/14 12:22:38;;;;;;;5.82;3.03;;;12.50;99.90;;;;;;5047807;28;20616;-67
2024/02/14 12:25:06;;;;;;;4.53;3.00;;;12.50;99.90;;;;;;5050532;28;20017;-68
2024/02/14 12:27:33;;;;;;;5.15;3.50;;;12.50;99.90;;;;;;5048314;28;20503;-68
2024/02/14 12:29:59;;;;;;;5.57;4.13;;;12.50;99.90;;;;;;5047816;28;20099;-68
2024/02/14 12:32:25;;;;;;;3.63;3.00;;;12.50;99.90;;;;;;5050611;28;20112;-68
2024/02/14 12:34:50;;;;;;;5.95;4.10;;;12.50;99.90;;;;;;5044036;28;20017;-68
2024/02/14 12:37:16;;;;;;;5.32;3.50;;;12.50;99.90;;;;;;5047680;28;20029;-67
2024/02/14 12:39:41;;;;;;;6.13;4.05;;;12.50;99.90;;;;;;5042847;28;20686;-68
2024/02/14 12:42:07;;;;;;;5.82;3.45;;;12.60;99.90;;;;;;5051309;28;20025;-67
2024/02/14 12:44:32;;;;;;;3.65;2.40;;;12.60;99.90;;;;;;5047887;28;20031;-68